Time;durP1;ratioP1;P1;durP2;ratioP2;P2;SDS_P1;SDS_P2;PMS_P1;PMS_P2;Temp;Humidity;BMP_temperature;BMP_pressure;BME280_temperature;BME280_humidity;BME280_pressure;Samples;Min_cycle;Max_cycle;Signal;HPM_P1;HPM_P2
2022/04/14 00:00:24;;;;;;;0.80;0.80;;;;;;;0.92;78.52;99463.63;4757733;30;20086;-92
2022/04/14 00:02:51;;;;;;;0.70;0.70;;;;;;;0.87;78.71;99468.63;4755716;30;20059;-91
2022/04/14 00:05:19;;;;;;;0.75;0.75;;;;;;;0.84;78.78;99472.44;4755580;30;20143;-92
2022/04/14 00:07:46;;;;;;;0.80;0.80;;;;;;;0.84;79.08;99480.44;4756162;30;20582;-90
2022/04/14 00:10:14;;;;;;;0.88;0.88;;;;;;;0.81;78.79;99472.81;4756692;30;20064;-91
2022/04/14 00:12:42;;;;;;;0.80;0.80;;;;;;;0.80;79.01;99470.31;4762093;30;20095;-92
2022/04/14 00:15:13;;;;;;;0.70;0.70;;;;;;;0.76;79.18;99466.31;4767457;30;20062;-90
2022/04/14 00:17:40;;;;;;;0.80;0.80;;;;;;;0.71;79.42;99461.53;4758011;30;20606;-91
2022/04/14 00:20:09;;;;;;;0.80;0.80;;;;;;;0.72;79.49;99462.34;4755629;30;20056;-91
2022/04/14 00:22:36;;;;;;;0.70;0.70;;;;;;;0.73;79.33;99461.34;4768972;30;20083;-91
2022/04/14 00:25:04;;;;;;;0.90;0.90;;;;;;;0.68;79.46;99461.03;4754982;30;20546;-90
2022/04/14 00:27:31;;;;;;;0.70;0.70;;;;;;;0.64;79.76;99461.38;4755419;30;20098;-89
2022/04/14 00:30:04;;;;;;;0.80;0.80;;;;;;;0.60;79.64;99445.94;4756657;30;20055;-92
2022/04/14 00:32:31;;;;;;;0.82;0.82;;;;;;;0.56;79.96;99457.91;4755944;30;20044;-90
2022/04/14 00:34:58;;;;;;;0.80;0.80;;;;;;;0.53;80.06;99458.22;4756108;30;20129;-91
2022/04/14 00:37:25;;;;;;;0.80;0.80;;;;;;;0.52;80.15;99456.59;4756107;30;20056;-90
2022/04/14 00:39:52;;;;;;;0.70;0.70;;;;;;;0.49;80.30;99457.75;4756030;30;20151;-91
2022/04/14 00:42:20;;;;;;;0.88;0.88;;;;;;;0.46;80.17;99455.44;4754011;30;20056;-93
2022/04/14 00:44:47;;;;;;;0.63;0.63;;;;;;;0.43;80.40;99463.72;4755565;30;20060;-92
2022/04/14 00:47:15;;;;;;;0.80;0.80;;;;;;;0.38;80.73;99448.31;4769867;30;20086;-92
2022/04/14 00:50:07;;;;;;;0.75;0.75;;;;;;;0.40;80.62;99451.59;4763734;30;20087;-92
2022/04/14 00:52:35;;;;;;;0.80;0.80;;;;;;;0.31;80.64;99457.13;4775508;30;20556;-91
2022/04/14 00:55:02;;;;;;;0.80;0.80;;;;;;;0.27;80.87;99445.97;4769609;30;20060;-91
2022/04/14 00:57:29;;;;;;;0.80;0.80;;;;;;;0.32;81.04;99456.09;4775880;30;20048;-90
2022/04/14 00:59:56;;;;;;;0.80;0.80;;;;;;;0.31;80.86;99449.97;4764450;30;20122;-92
2022/04/14 01:02:24;;;;;;;0.70;0.70;;;;;;;0.29;80.81;99449.31;4755402;30;20060;-91
2022/04/14 01:04:51;;;;;;;0.70;0.70;;;;;;;0.29;80.95;99457.28;4768664;30;20079;-91
2022/04/14 01:07:18;;;;;;;0.80;0.80;;;;;;;0.27;80.88;99458.44;4768391;30;20449;-91
2022/04/14 01:09:46;;;;;;;0.70;0.70;;;;;;;0.22;81.21;99449.13;4770296;30;20056;-90
2022/04/14 01:12:14;;;;;;;0.80;0.80;;;;;;;0.20;81.29;99463.56;4755598;30;20064;-90
2022/04/14 01:14:41;;;;;;;0.80;0.80;;;;;;;0.13;81.35;99465.25;4770082;30;20086;-88
2022/04/14 01:17:09;;;;;;;0.70;0.70;;;;;;;0.10;81.69;99461.09;4769933;30;20052;-90
2022/04/14 01:19:38;;;;;;;0.80;0.80;;;;;;;0.04;81.74;99466.25;4756541;30;20071;-90
2022/04/14 01:22:24;;;;;;;0.80;0.80;;;;;;;0.06;82.07;99466.91;4769847;30;20071;-89
2022/04/14 01:24:56;;;;;;;0.80;0.80;;;;;;;0.03;82.10;99467.25;4768651;30;20059;-91
2022/04/14 01:27:28;;;;;;;0.80;0.80;;;;;;;0.01;82.23;99467.41;4767171;30;20067;-89
2022/04/14 01:29:55;;;;;;;0.80;0.80;;;;;;;0.01;82.32;99479.84;4767002;30;20513;-92
2022/04/14 01:32:22;;;;;;;0.80;0.80;;;;;;;-0.03;82.55;99484.63;4753661;30;20062;-92
2022/04/14 01:34:50;;;;;;;0.80;0.80;;;;;;;-0.06;82.48;99474.34;4753693;30;20056;-89
2022/04/14 01:37:17;;;;;;;0.80;0.80;;;;;;;-0.10;82.67;99468.56;4767338;30;20075;-91
2022/04/14 01:39:45;;;;;;;0.80;0.80;;;;;;;-0.09;82.63;99469.38;4753877;30;20066;-92
2022/04/14 01:42:12;;;;;;;0.80;0.80;;;;;;;-0.17;82.77;99475.50;4753742;30;20137;-91
2022/04/14 01:44:39;;;;;;;0.77;0.77;;;;;;;-0.25;83.10;99473.69;4768545;30;20463;-91
2022/04/14 01:47:07;;;;;;;0.80;0.80;;;;;;;-0.29;83.30;99468.84;4754093;30;20129;-91
2022/04/14 01:49:34;;;;;;;0.80;0.80;;;;;;;-0.32;83.41;99479.81;4753685;30;20402;-90
2022/04/14 01:52:01;;;;;;;0.80;0.80;;;;;;;-0.36;83.46;99478.44;4754447;30;20059;-91
2022/04/14 01:54:28;;;;;;;0.82;0.82;;;;;;;-0.41;83.59;99476.28;4753662;30;20080;-91
2022/04/14 01:56:55;;;;;;;0.80;0.80;;;;;;;-0.41;83.90;99480.75;4752933;30;20052;-91
2022/04/14 01:59:22;;;;;;;0.75;0.75;;;;;;;-0.46;83.82;99482.09;4753914;30;20079;-90
2022/04/14 02:01:49;;;;;;;0.80;0.80;;;;;;;-0.47;84.18;99471.63;4754935;30;20064;-91
2022/04/14 02:04:16;;;;;;;0.70;0.70;;;;;;;-0.47;84.13;99487.53;4757276;30;20055;-92
2022/04/14 02:06:43;;;;;;;0.80;0.80;;;;;;;-0.49;84.21;99473.63;4758600;30;20064;-90
2022/04/14 02:09:16;;;;;;;0.80;0.80;;;;;;;-0.49;84.30;99477.09;4758330;30;20071;-90
2022/04/14 02:11:43;;;;;;;0.77;0.77;;;;;;;-0.51;84.67;99487.03;4773721;30;20067;-91
2022/04/14 02:14:10;;;;;;;0.82;0.82;;;;;;;-0.53;84.42;99477.56;4759979;30;20060;-91
2022/04/14 02:16:37;;;;;;;0.80;0.80;;;;;;;-0.53;84.61;99490.81;4758873;30;20059;-92
2022/04/14 02:19:04;;;;;;;0.75;0.75;;;;;;;-0.54;84.81;99492.66;4758558;30;20110;-90
2022/04/14 02:21:31;;;;;;;0.80;0.80;;;;;;;-0.55;84.43;99488.34;4757247;30;20488;-91
2022/04/14 02:23:58;;;;;;;0.80;0.80;;;;;;;-0.48;84.40;99497.34;4757339;30;20083;-91
2022/04/14 02:26:26;;;;;;;0.80;0.80;;;;;;;-0.61;84.45;99494.28;4757444;30;20086;-91
2022/04/14 02:28:54;;;;;;;0.82;0.82;;;;;;;-0.67;84.68;99493.09;4757236;30;20060;-89
2022/04/14 02:31:21;;;;;;;0.80;0.80;;;;;;;-0.67;84.80;99489.63;4757500;30;20125;-90
2022/04/14 02:33:48;;;;;;;0.70;0.70;;;;;;;-0.60;84.70;99497.78;4756865;30;20064;-91
2022/04/14 02:36:16;;;;;;;0.70;0.70;;;;;;;-0.61;84.49;99491.63;4756788;30;20082;-89
2022/04/14 02:38:45;;;;;;;0.80;0.80;;;;;;;-0.67;84.48;99495.75;4756714;30;20052;-90
2022/04/14 02:41:13;;;;;;;0.77;0.77;;;;;;;-0.71;84.59;99498.88;4753079;30;20086;-90
2022/04/14 02:43:40;;;;;;;0.70;0.70;;;;;;;-0.69;84.72;99504.88;4769414;30;20119;-89
2022/04/14 02:46:07;;;;;;;0.80;0.80;;;;;;;-0.66;85.00;99501.88;4769673;30;20550;-89
2022/04/14 02:48:35;;;;;;;0.80;0.80;;;;;;;-0.64;84.66;99501.75;4756417;30;20393;-90
2022/04/14 02:51:02;;;;;;;0.73;0.73;;;;;;;-0.62;84.65;99510.38;4756721;30;20087;-92
2022/04/14 02:53:29;;;;;;;0.90;0.90;;;;;;;-0.62;84.82;99510.38;4770902;30;20112;-91
2022/04/14 02:55:56;;;;;;;0.70;0.70;;;;;;;-0.59;84.69;99513.53;4769530;30;20079;-89
2022/04/14 02:58:23;;;;;;;0.88;0.88;;;;;;;-0.63;84.31;99520.16;4769691;30;20432;-91
2022/04/14 03:00:50;;;;;;;0.60;0.60;;;;;;;-0.62;84.43;99524.44;4760155;30;20056;-90
2022/04/14 03:03:19;;;;;;;0.88;0.88;;;;;;;-0.58;84.36;99533.75;4759645;30;20079;-94
2022/04/14 03:05:46;;;;;;;0.77;0.77;;;;;;;-0.62;84.25;99524.44;4773322;30;20078;-93
2022/04/14 03:08:13;;;;;;;0.80;0.80;;;;;;;-0.60;84.66;99529.59;4773783;30;20481;-90
2022/04/14 03:10:40;;;;;;;0.70;0.70;;;;;;;-0.57;84.38;99532.75;4757720;30;20081;-91
2022/04/14 03:13:07;;;;;;;0.73;0.73;;;;;;;-0.58;84.56;99533.75;4772087;30;20428;-93
2022/04/14 03:15:35;;;;;;;0.80;0.80;;;;;;;-0.58;84.52;99531.09;4765019;30;20056;-92
2022/04/14 03:18:02;;;;;;;0.80;0.80;;;;;;;-0.49;84.39;99540.72;4773233;30;20072;-92
2022/04/14 03:20:30;;;;;;;0.90;0.90;;;;;;;-0.43;84.08;99541.94;4776177;30;20052;-90
2022/04/14 03:22:58;;;;;;;0.85;0.85;;;;;;;-0.38;84.26;99538.78;4787258;30;20420;-88
2022/04/14 03:25:26;;;;;;;0.70;0.70;;;;;;;-0.30;83.97;99549.44;4770394;30;20067;-87
2022/04/14 03:27:53;;;;;;;0.70;0.70;;;;;;;-0.17;83.59;99538.38;4769152;30;20076;-87
2022/04/14 03:30:20;;;;;;;0.80;0.80;;;;;;;-0.12;83.04;99547.47;4764371;30;20109;-87
2022/04/14 03:32:48;;;;;;;0.70;0.70;;;;;;;-0.07;82.91;99539.03;4754153;30;20064;-90
2022/04/14 03:35:15;;;;;;;0.73;0.73;;;;;;;-0.02;82.84;99544.69;4774926;30;20052;-91
2022/04/14 03:37:43;;;;;;;0.80;0.80;;;;;;;0.02;82.53;99539.88;4762270;30;20048;-89
2022/04/14 03:40:11;;;;;;;0.77;0.77;;;;;;;0.03;82.47;99539.72;4756828;30;20504;-90
2022/04/14 03:42:39;;;;;;;0.80;0.80;;;;;;;0.10;81.91;99548.69;4755495;30;20059;-94
2022/04/14 03:45:07;;;;;;;0.90;0.90;;;;;;;0.12;82.21;99545.84;4761903;30;20048;-94
2022/04/14 03:47:34;;;;;;;0.80;0.80;;;;;;;0.24;81.67;99549.03;4759590;30;20056;-94
2022/04/14 03:50:02;;;;;;;0.90;0.90;;;;;;;0.26;81.44;99545.22;4757638;30;20056;-93
2022/04/14 03:52:29;;;;;;;0.80;0.80;;;;;;;0.33;81.12;99546.22;4772442;30;20052;-93
2022/04/14 03:54:57;;;;;;;0.80;0.80;;;;;;;0.41;80.74;99546.22;4772801;30;20060;-93
2022/04/14 03:57:26;;;;;;;0.90;0.90;;;;;;;0.50;80.69;99543.56;4787310;30;20489;-94
2022/04/14 03:59:53;;;;;;;0.80;0.80;;;;;;;0.52;80.13;99542.41;4776482;30;20081;-91
2022/04/14 04:02:22;;;;;;;0.85;0.85;;;;;;;0.58;79.93;99540.91;4775717;30;20123;-93
2022/04/14 04:04:58;;;;;;;0.70;0.70;;;;;;;0.62;79.47;99532.44;4815538;29;20059;-92
2022/04/14 04:07:30;;;;;;;0.90;0.90;;;;;;;0.71;79.66;99546.56;4777038;29;20080;-91
2022/04/14 04:09:57;;;;;;;0.70;0.70;;;;;;;0.77;79.16;99556.50;4803118;29;20096;-93
2022/04/14 04:12:58;;;;;;;0.80;0.80;;;;;;;0.86;79.15;99541.34;4808567;29;20063;-92
2022/04/14 04:16:06;;;;;;;0.90;0.90;;;;;;;0.97;78.42;99540.19;4795954;29;20059;-93
2022/04/14 04:18:35;;;;;;;0.70;0.70;;;;;;;1.06;78.04;99544.47;4795710;29;20119;-93
2022/04/14 04:21:19;;;;;;;0.70;0.70;;;;;;;1.15;77.47;99545.31;4794751;30;20059;-92
2022/04/14 04:23:46;;;;;;;0.90;0.90;;;;;;;1.21;77.15;99548.09;4792831;30;20060;-93
2022/04/14 04:26:13;;;;;;;0.80;0.80;;;;;;;1.24;76.66;99547.78;4799414;29;20170;-96
2022/04/14 04:28:40;;;;;;;0.85;0.85;;;;;;;1.30;76.14;99536.44;4808546;29;20062;-95
2022/04/14 04:31:11;;;;;;;0.80;0.80;;;;;;;1.39;75.76;99549.69;4807542;30;20039;-94
2022/04/14 04:33:38;;;;;;;0.80;0.80;;;;;;;1.46;75.46;99535.53;4968859;24;20080;-94
2022/04/14 04:36:06;;;;;;;0.77;0.77;;;;;;;1.58;74.89;99536.00;4829117;29;20026;-92
2022/04/14 04:38:38;;;;;;;0.80;0.80;;;;;;;1.70;74.49;99531.13;4828324;29;20061;-94
2022/04/14 04:41:05;;;;;;;0.80;0.80;;;;;;;1.80;74.08;99528.22;4829633;29;20043;-94
2022/04/14 04:43:32;;;;;;;0.70;0.70;;;;;;;1.91;73.54;99531.31;4830575;29;20035;-95
2022/04/14 04:45:59;;;;;;;0.90;0.90;;;;;;;1.98;72.84;99536.78;4844158;29;20080;-90
2022/04/14 04:48:30;;;;;;;0.90;0.90;;;;;;;2.01;72.64;99531.09;4829643;29;20050;-88
2022/04/14 04:51:16;;;;;;;0.80;0.80;;;;;;;2.14;72.06;99538.50;4830184;29;20111;-90
2022/04/14 04:53:43;;;;;;;0.90;0.90;;;;;;;2.29;71.44;99544.72;4829920;29;20050;-85
2022/04/14 04:56:11;;;;;;;0.73;0.73;;;;;;;2.34;71.16;99539.69;4829892;29;20042;-95
2022/04/14 04:58:38;;;;;;;0.75;0.75;;;;;;;2.51;70.62;99534.25;4828233;29;20039;-95
2022/04/14 05:01:05;;;;;;;0.63;0.63;;;;;;;2.58;69.95;99538.69;4827769;29;20070;-93
2022/04/14 05:03:33;;;;;;;0.80;0.80;;;;;;;2.60;69.52;99544.63;4735752;24;10002415;-94
2022/04/14 05:06:01;;;;;;;0.80;0.80;;;;;;;2.61;69.54;99529.50;4809186;29;20055;-92
2022/04/14 05:08:34;;;;;;;0.85;0.85;;;;;;;2.76;69.09;99529.50;4815419;29;20127;-92
2022/04/14 05:11:07;;;;;;;0.90;0.90;;;;;;;2.91;68.36;99530.38;4806628;29;20047;-91
2022/04/14 05:13:58;;;;;;;0.70;0.70;;;;;;;3.06;68.21;99545.53;4790019;29;20027;-92
2022/04/14 05:16:31;;;;;;;0.80;0.80;;;;;;;2.94;67.32;99524.69;4805637;29;20084;-93
2022/04/14 05:19:00;;;;;;;0.75;0.75;;;;;;;3.19;66.87;99543.06;4810562;29;20070;-92
2022/04/14 05:21:28;;;;;;;0.70;0.70;;;;;;;3.25;66.16;99542.34;4815754;29;20078;-87
2022/04/14 05:23:57;;;;;;;0.80;0.80;;;;;;;3.27;65.39;99532.31;4785339;30;20576;-88
2022/04/14 05:26:24;;;;;;;0.80;0.80;;;;;;;3.40;65.76;99545.84;4787941;30;20055;-87
2022/04/14 05:28:51;;;;;;;0.80;0.80;;;;;;;3.48;64.79;99532.38;4793140;29;20055;-86
2022/04/14 05:31:20;;;;;;;0.80;0.80;;;;;;;3.58;64.30;99531.28;4801592;30;20058;-86
2022/04/14 05:33:49;;;;;;;0.80;0.80;;;;;;;3.71;63.74;99541.28;4794105;29;20063;-87
2022/04/14 05:36:16;;;;;;;0.70;0.70;;;;;;;3.82;63.57;99543.47;4771225;30;20134;-87
2022/04/14 05:38:43;;;;;;;0.80;0.80;;;;;;;3.95;63.28;99542.78;4801904;29;20055;-87
2022/04/14 05:41:10;;;;;;;0.77;0.77;;;;;;;4.06;63.05;99539.66;4782981;29;20055;-90
2022/04/14 05:43:37;;;;;;;0.80;0.80;;;;;;;4.09;62.39;99534.75;4781628;30;20118;-87
2022/04/14 05:46:04;;;;;;;0.80;0.80;;;;;;;4.24;61.47;99548.03;4768519;30;20060;-87
2022/04/14 05:48:31;;;;;;;0.80;0.80;;;;;;;4.34;61.27;99543.22;4782888;30;20531;-85
2022/04/14 05:50:59;;;;;;;0.80;0.80;;;;;;;4.44;60.67;99542.06;4772680;30;20051;-84
2022/04/14 05:53:26;;;;;;;0.70;0.70;;;;;;;4.52;60.72;99541.94;4777651;30;20436;-84
2022/04/14 05:55:55;;;;;;;0.80;0.80;;;;;;;4.62;60.09;99545.09;4781084;30;20624;-85
2022/04/14 05:58:22;;;;;;;0.80;0.80;;;;;;;4.77;59.61;99545.03;4783265;30;20112;-86
2022/04/14 06:00:49;;;;;;;0.70;0.70;;;;;;;4.71;59.02;99549.31;4784083;29;20058;-87
2022/04/14 06:03:16;;;;;;;0.80;0.80;;;;;;;4.66;59.25;99551.72;4777300;30;20488;-85
2022/04/14 06:05:43;;;;;;;0.80;0.80;;;;;;;4.80;58.53;99543.81;4777506;30;20065;-87
2022/04/14 06:08:11;;;;;;;0.80;0.80;;;;;;;4.92;58.07;99550.28;4782863;29;20113;-88
2022/04/14 06:10:38;;;;;;;0.80;0.80;;;;;;;5.03;58.49;99555.09;4781080;30;20055;-86
2022/04/14 06:13:05;;;;;;;0.70;0.70;;;;;;;5.21;57.60;99544.72;4777898;29;20150;-86
2022/04/14 06:15:33;;;;;;;0.80;0.80;;;;;;;5.28;56.50;99552.78;4772184;29;20787;-87
2022/04/14 06:18:02;;;;;;;0.73;0.73;;;;;;;5.36;56.33;99557.97;4779136;29;20060;-86
2022/04/14 06:20:32;;;;;;;0.60;0.60;;;;;;;5.37;56.34;99553.47;4780863;30;20047;-87
2022/04/14 06:23:00;;;;;;;0.80;0.80;;;;;;;5.49;56.44;99551.88;4780179;30;20090;-87
2022/04/14 06:25:27;;;;;;;0.80;0.80;;;;;;;5.64;55.59;99557.91;4782138;30;20054;-87
2022/04/14 06:27:57;;;;;;;0.80;0.80;;;;;;;5.67;55.39;99554.00;4766329;29;20081;-86
2022/04/14 06:30:24;;;;;;;0.80;0.80;;;;;;;5.80;55.15;99548.72;4765280;30;20122;-86
2022/04/14 06:33:09;;;;;;;0.70;0.70;;;;;;;5.85;54.83;99548.13;4772268;29;20223;-88
2022/04/14 06:35:36;;;;;;;;;;;;;;;5.88;54.19;99554.94;4775667;30;20055;-86
2022/04/14 06:38:04;;;;;;;0.70;0.70;;;;;;;5.93;54.26;99552.50;4791178;29;20253;-88
2022/04/14 06:40:31;;;;;;;0.70;0.70;;;;;;;6.04;53.73;99560.78;4781460;30;20086;-88
2022/04/14 06:43:01;;;;;;;0.70;0.70;;;;;;;6.16;53.48;99560.22;4781432;30;20149;-89
2022/04/14 06:45:30;;;;;;;0.77;0.77;;;;;;;6.22;53.28;99554.03;4785466;30;20059;-88
2022/04/14 06:47:58;;;;;;;0.80;0.80;;;;;;;6.22;52.67;99554.84;4782447;29;20426;-89
2022/04/14 06:50:26;;;;;;;0.70;0.70;;;;;;;6.36;52.78;99561.09;4777780;30;20138;-87
2022/04/14 06:52:53;;;;;;;0.70;0.70;;;;;;;6.47;51.97;99559.66;4787623;29;20082;-88
2022/04/14 06:55:21;;;;;;;0.60;0.60;;;;;;;6.46;51.97;99558.81;4784554;30;20207;-85
2022/04/14 06:57:49;;;;;;;0.70;0.70;;;;;;;6.57;51.78;99564.63;4785928;30;20301;-86
2022/04/14 07:00:16;;;;;;;0.70;0.70;;;;;;;6.69;51.78;99554.94;4781993;29;20120;-85
2022/04/14 07:02:51;;;;;;;0.70;0.70;;;;;;;6.72;50.91;99551.84;4784617;29;20059;-86
2022/04/14 07:05:19;;;;;;;0.70;0.70;;;;;;;6.81;51.11;99552.44;4787700;29;20118;-89
2022/04/14 07:07:46;;;;;;;0.70;0.70;;;;;;;6.80;50.07;99550.81;4791840;29;20164;-87
2022/04/14 07:10:18;;;;;;;0.70;0.70;;;;;;;6.88;50.33;99562.13;4780445;30;20059;-88
2022/04/14 07:12:46;;;;;;;0.70;0.70;;;;;;;6.92;50.07;99549.97;4791886;29;20078;-92
2022/04/14 07:15:14;;;;;;;0.70;0.70;;;;;;;7.07;50.16;99557.00;4787333;30;20059;-89
2022/04/14 07:17:41;;;;;;;0.65;0.65;;;;;;;7.20;50.02;99558.81;4785119;29;20158;-84
2022/04/14 07:20:09;;;;;;;0.70;0.70;;;;;;;7.34;49.91;99550.53;4785254;29;20134;-86
2022/04/14 07:22:42;;;;;;;0.70;0.70;;;;;;;7.28;49.16;99545.19;4784646;29;20063;-88
2022/04/14 07:25:09;;;;;;;0.70;0.70;;;;;;;7.23;49.22;99556.53;4786572;29;20116;-86
2022/04/14 07:27:36;;;;;;;0.75;0.75;;;;;;;7.33;49.19;99548.88;4785024;29;20101;-86
2022/04/14 07:30:04;;;;;;;0.80;0.80;;;;;;;7.54;48.26;99552.34;4786083;30;20132;-85
2022/04/14 07:32:35;;;;;;;0.80;0.80;;;;;;;7.57;47.64;99546.53;4780915;30;20067;-86
2022/04/14 07:35:03;;;;;;;0.80;0.80;;;;;;;7.58;47.23;99550.88;4784520;30;20055;-86
2022/04/14 07:37:31;;;;;;;0.80;0.80;;;;;;;7.70;47.29;99533.06;4785417;29;20047;-87
2022/04/14 07:39:59;;;;;;;0.80;0.80;;;;;;;7.94;46.39;99536.06;4784890;29;20695;-85
2022/04/14 07:42:34;;;;;;;0.80;0.80;;;;;;;8.11;46.24;99541.78;4785891;29;20066;-92
2022/04/14 07:45:02;;;;;;;0.85;0.85;;;;;;;8.30;45.63;99538.13;4791495;29;20413;-90
2022/04/14 07:47:37;;;;;;;0.80;0.80;;;;;;;8.44;44.98;99536.22;4788901;30;20054;-89
2022/04/14 07:50:10;;;;;;;0.80;0.80;;;;;;;8.56;44.45;99531.78;4798928;29;20043;-89
2022/04/14 07:52:48;;;;;;;0.90;0.90;;;;;;;8.51;44.48;99534.31;4800460;29;20059;-91
2022/04/14 07:55:33;;;;;;;0.80;0.80;;;;;;;8.46;44.20;99532.28;4790394;30;20051;-88
2022/04/14 07:58:06;;;;;;;0.80;0.80;;;;;;;8.79;44.50;99535.75;4784810;30;20055;-87
2022/04/14 08:00:35;;;;;;;0.80;0.80;;;;;;;9.02;42.84;99538.66;4792272;29;20059;-89
2022/04/14 08:03:03;;;;;;;0.80;0.80;;;;;;;9.15;42.40;99535.00;4791589;29;20071;-86
2022/04/14 08:05:38;;;;;;;0.70;0.70;;;;;;;9.39;41.88;99538.69;4789898;29;20606;-87
2022/04/14 08:08:16;;;;;;;0.77;0.77;;;;;;;9.66;41.65;99535.69;4790028;29;20055;-87
2022/04/14 08:10:44;;;;;;;0.80;0.80;;;;;;;9.83;41.28;99544.81;4788594;29;20063;-88
2022/04/14 08:13:18;;;;;;;0.70;0.70;;;;;;;9.87;40.08;99545.19;4791274;29;20153;-86
2022/04/14 08:15:45;;;;;;;0.90;0.90;;;;;;;10.28;39.44;99541.78;4773147;30;20055;-85
2022/04/14 08:18:13;;;;;;;0.80;0.80;;;;;;;10.42;38.53;99542.41;4792586;29;20609;-87
2022/04/14 08:20:47;;;;;;;0.80;0.80;;;;;;;10.44;37.38;99547.56;4771189;30;20068;-88
2022/04/14 08:23:16;;;;;;;0.85;0.85;;;;;;;10.47;37.60;99541.72;4781452;29;20122;-90
2022/04/14 08:25:44;;;;;;;0.80;0.80;;;;;;;10.81;38.11;99540.97;4785764;30;20063;-89
2022/04/14 08:28:32;;;;;;;0.80;0.80;;;;;;;11.32;37.92;99532.38;4777045;30;20144;-89
2022/04/14 08:30:59;;;;;;;0.90;0.90;;;;;;;11.37;36.23;99540.59;4788877;30;20118;-90
2022/04/14 08:33:27;;;;;;;0.80;0.80;;;;;;;11.62;35.86;99530.34;4803762;29;20087;-90
2022/04/14 08:35:55;;;;;;;0.80;0.80;;;;;;;11.79;35.72;99543.13;4793646;29;20150;-89
2022/04/14 08:38:22;;;;;;;0.82;0.82;;;;;;;12.06;35.79;99533.41;4767251;30;20089;-93
2022/04/14 08:40:58;;;;;;;0.90;0.90;;;;;;;12.00;34.46;99529.00;4777516;30;20119;-89
2022/04/14 08:43:52;;;;;;;0.90;0.90;;;;;;;11.96;33.79;99541.34;4793289;30;20063;-92
2022/04/14 08:46:21;;;;;;;0.80;0.80;;;;;;;12.17;34.04;99539.84;4794326;29;20051;-94
2022/04/14 08:48:50;;;;;;;0.88;0.88;;;;;;;12.25;32.91;99539.44;4763872;30;20059;-91
2022/04/14 08:51:22;;;;;;;0.80;0.80;;;;;;;12.42;33.43;99535.97;4795981;30;20063;-90
2022/04/14 08:53:50;;;;;;;0.90;0.90;;;;;;;12.79;32.22;99530.91;4790404;29;20534;-87
2022/04/14 08:56:25;;;;;;;0.80;0.80;;;;;;;12.97;32.70;99530.66;4791817;29;20051;-90
2022/04/14 08:58:55;;;;;;;0.90;0.90;;;;;;;13.13;31.77;99526.28;4788154;29;20593;-85
2022/04/14 09:01:26;;;;;;;0.80;0.80;;;;;;;13.24;31.93;99521.81;4790245;29;20459;-88
2022/04/14 09:03:59;;;;;;;0.80;0.80;;;;;;;13.46;31.90;99513.75;4792391;29;20191;-87
2022/04/14 09:06:29;;;;;;;0.80;0.80;;;;;;;13.84;31.89;99509.34;4767085;30;20085;-89
2022/04/14 09:08:58;;;;;;;0.90;0.90;;;;;;;14.18;30.83;99509.16;4788777;30;20055;-86
2022/04/14 09:11:26;;;;;;;0.80;0.80;;;;;;;14.34;30.92;99510.16;4786978;29;20048;-88
2022/04/14 09:13:54;;;;;;;0.90;0.90;;;;;;;14.49;29.88;99499.44;4786690;30;20104;-87
2022/04/14 09:16:22;;;;;;;0.80;0.80;;;;;;;14.52;29.84;99504.34;4798484;29;20059;-87
2022/04/14 09:18:50;;;;;;;0.80;0.80;;;;;;;14.83;29.95;99504.63;4783218;30;20496;-85
2022/04/14 09:21:17;;;;;;;0.85;0.85;;;;;;;15.03;29.31;99507.50;4780687;30;20079;-87
2022/04/14 09:23:54;;;;;;;0.90;0.90;;;;;;;14.81;29.45;99518.50;4784270;29;20086;-86
2022/04/14 09:26:24;;;;;;;0.80;0.80;;;;;;;15.32;28.62;99509.88;4784319;30;20571;-86
2022/04/14 09:29:10;;;;;;;0.82;0.82;;;;;;;14.98;28.48;99512.88;4784405;29;20083;-86
2022/04/14 09:31:54;;;;;;;0.90;0.90;;;;;;;15.00;28.84;99505.31;4788066;29;20109;-88
2022/04/14 09:34:41;;;;;;;0.80;0.80;;;;;;;15.46;28.76;99507.47;4803608;29;21377;-85
2022/04/14 09:37:08;;;;;;;0.90;0.90;;;;;;;16.01;27.64;99511.53;4787697;29;20059;-87
2022/04/14 09:39:58;;;;;;;0.90;0.90;;;;;;;15.96;26.84;99503.38;4783692;29;20058;-87
2022/04/14 09:42:26;;;;;;;0.90;0.90;;;;;;;15.84;27.00;99497.34;4785437;30;20063;-86
2022/04/14 09:44:55;;;;;;;0.90;0.90;;;;;;;15.83;27.16;99507.41;4784924;30;20057;-86
2022/04/14 09:47:39;;;;;;;0.80;0.80;;;;;;;15.97;26.84;99500.34;4783708;30;20531;-85
2022/04/14 09:50:40;;;;;;;0.80;0.80;;;;;;;15.98;26.68;99499.28;4780690;30;20059;-87
2022/04/14 09:53:14;;;;;;;0.90;0.90;;;;;;;15.97;27.12;99496.81;4784649;30;20062;-87
2022/04/14 09:55:43;;;;;;;0.90;0.90;;;;;;;16.21;26.50;99486.28;4787697;30;20655;-88
2022/04/14 09:58:17;;;;;;;0.90;0.90;;;;;;;16.27;26.40;99490.63;4787033;29;20062;-87
2022/04/14 10:00:48;;;;;;;0.90;0.90;;;;;;;16.29;26.71;99491.19;4794661;29;20050;-88
2022/04/14 10:03:16;;;;;;;0.90;0.90;;;;;;;16.33;26.01;99478.66;4793311;29;20587;-86
2022/04/14 10:05:45;;;;;;;0.80;0.80;;;;;;;16.72;26.07;99486.28;4789339;30;20480;-87
2022/04/14 10:08:13;;;;;;;0.90;0.90;;;;;;;16.99;25.71;99490.66;4784649;29;20063;-87
2022/04/14 10:10:45;;;;;;;0.90;0.90;;;;;;;17.80;25.50;99491.53;4785143;30;20070;-85
2022/04/14 10:13:21;;;;;;;0.80;0.80;;;;;;;18.24;24.50;99477.09;4783702;30;20066;-87
2022/04/14 10:15:49;;;;;;;0.80;0.80;;;;;;;17.64;23.67;99483.38;4788590;29;20081;-88
2022/04/14 10:18:17;;;;;;;0.90;0.90;;;;;;;17.42;24.23;99482.91;4789341;29;20077;-87
2022/04/14 10:20:46;;;;;;;0.82;0.82;;;;;;;17.65;24.62;99487.75;4787991;29;20055;-88
2022/04/14 10:23:14;;;;;;;0.80;0.80;;;;;;;18.18;24.07;99489.97;4783912;29;20069;-87
2022/04/14 10:25:42;;;;;;;0.80;0.80;;;;;;;17.66;25.12;99488.56;4788531;29;20522;-88
2022/04/14 10:28:14;;;;;;;0.80;0.80;;;;;;;17.69;24.63;99488.81;4789349;29;20063;-86
2022/04/14 10:30:52;;;;;;;0.80;0.80;;;;;;;18.19;23.95;99478.75;4791519;29;20516;-86
2022/04/14 10:33:22;;;;;;;0.80;0.80;;;;;;;18.76;24.05;99487.38;4789694;29;20065;-90
2022/04/14 10:35:51;;;;;;;0.80;0.80;;;;;;;18.80;23.65;99477.47;4795912;30;20085;-88
2022/04/14 10:38:31;;;;;;;0.70;0.70;;;;;;;19.28;23.25;99476.75;4812475;29;20059;-87
2022/04/14 10:40:59;;;;;;;0.80;0.80;;;;;;;19.51;23.01;99477.84;4789834;29;20055;-89
2022/04/14 10:43:27;;;;;;;0.60;0.60;;;;;;;20.12;22.90;99473.50;4791430;29;20153;-88
2022/04/14 10:45:57;;;;;;;0.80;0.80;;;;;;;19.18;22.57;99485.06;4776369;30;20540;-88
2022/04/14 10:48:35;;;;;;;0.80;0.80;;;;;;;18.42;23.51;99481.88;4785191;30;20059;-89
2022/04/14 10:51:23;;;;;;;0.80;0.80;;;;;;;17.81;23.29;99477.59;4786918;29;20535;-86
2022/04/14 10:54:00;;;;;;;0.90;0.90;;;;;;;17.62;24.64;99469.19;4803337;29;20059;-88
2022/04/14 10:56:34;;;;;;;0.90;0.90;;;;;;;17.70;23.27;99465.91;4789614;30;20146;-88
2022/04/14 10:59:05;;;;;;;0.80;0.80;;;;;;;17.91;23.77;99463.09;4789724;29;20055;-88
2022/04/14 11:01:50;;;;;;;0.90;0.90;;;;;;;18.61;23.38;99455.50;4789498;29;20471;-87
2022/04/14 11:04:21;;;;;;;0.80;0.80;;;;;;;19.24;23.24;99462.00;4788307;29;20059;-88
2022/04/14 11:06:51;;;;;;;0.80;0.80;;;;;;;20.10;22.55;99459.28;4779702;30;20117;-88
2022/04/14 11:09:38;;;;;;;0.70;0.70;;;;;;;20.52;21.92;99452.06;4785989;30;20062;-89
2022/04/14 11:12:10;;;;;;;0.80;0.80;;;;;;;20.23;21.97;99444.88;4783157;30;20116;-89
2022/04/14 11:14:47;;;;;;;0.75;0.75;;;;;;;20.01;22.25;99439.97;4785757;29;20058;-87
2022/04/14 11:17:33;;;;;;;0.80;0.80;;;;;;;19.94;22.13;99438.72;4787682;30;20059;-88
2022/04/14 11:20:19;;;;;;;0.70;0.70;;;;;;;19.80;21.56;99457.78;4790253;30;20062;-88
2022/04/14 11:23:08;;;;;;;0.70;0.70;;;;;;;19.92;22.27;99453.50;4784270;30;20528;-88
2022/04/14 11:25:38;;;;;;;0.80;0.80;;;;;;;19.98;21.87;99446.06;4786529;29;20115;-87
2022/04/14 11:28:25;;;;;;;0.70;0.70;;;;;;;20.31;22.11;99446.13;4786411;29;20055;-89
2022/04/14 11:31:04;;;;;;;0.70;0.70;;;;;;;20.26;20.65;99437.97;4779262;30;20059;-88
2022/04/14 11:33:35;;;;;;;0.70;0.70;;;;;;;19.21;21.52;99421.56;4780916;30;20142;-87
2022/04/14 11:36:11;;;;;;;0.77;0.77;;;;;;;18.27;22.64;99441.81;4786915;29;20560;-88
2022/04/14 11:39:05;;;;;;;0.80;0.80;;;;;;;18.22;23.23;99433.66;4788368;29;20062;-88
2022/04/14 11:41:37;;;;;;;0.80;0.80;;;;;;;19.55;21.47;99429.63;4788487;30;20081;-87
2022/04/14 11:44:13;;;;;;;0.80;0.80;;;;;;;19.92;22.20;99442.56;4787369;29;20154;-88
2022/04/14 11:46:46;;;;;;;0.70;0.70;;;;;;;20.52;21.64;99435.63;4786788;30;20130;-87
2022/04/14 11:49:23;;;;;;;0.80;0.80;;;;;;;20.96;20.48;99428.84;4785708;29;20138;-88
2022/04/14 11:51:56;;;;;;;0.80;0.80;;;;;;;20.86;20.44;99429.03;4770778;30;20093;-89
2022/04/14 11:54:39;;;;;;;0.70;0.70;;;;;;;20.95;20.19;99429.97;4789544;29;20069;-89